sensor_id;sensor_type;location;lat;lon;timestamp;P1;durP1;ratioP1;P2;durP2;ratioP2
17347;SDS011;8791;50.876;4.342;2022-10-30T00:00:39;15.30;;;4.53;;
17347;SDS011;8791;50.876;4.342;2022-10-30T00:03:08;13.10;;;4.43;;
17347;SDS011;8791;50.876;4.342;2022-10-30T00:05:38;13.40;;;4.50;;
17347;SDS011;8791;50.876;4.342;2022-10-30T00:08:07;17.52;;;4.75;;
17347;SDS011;8791;50.876;4.342;2022-10-30T00:10:37;20.45;;;5.60;;
17347;SDS011;8791;50.876;4.342;2022-10-30T00:13:04;15.55;;;5.55;;
17347;SDS011;8791;50.876;4.342;2022-10-30T00:15:31;13.98;;;4.68;;
17347;SDS011;8791;50.876;4.342;2022-10-30T00:17:58;11.80;;;5.50;;
17347;SDS011;8791;50.876;4.342;2022-10-30T00:20:25;20.00;;;5.07;;
17347;SDS011;8791;50.876;4.342;2022-10-30T00:22:52;15.40;;;5.00;;
17347;SDS011;8791;50.876;4.342;2022-10-30T00:25:18;18.30;;;5.47;;
17347;SDS011;8791;50.876;4.342;2022-10-30T00:27:46;15.93;;;5.72;;
17347;SDS011;8791;50.876;4.342;2022-10-30T00:30:13;17.40;;;6.15;;
17347;SDS011;8791;50.876;4.342;2022-10-30T00:32:41;9.82;;;4.78;;
17347;SDS011;8791;50.876;4.342;2022-10-30T00:35:08;17.58;;;5.18;;
17347;SDS011;8791;50.876;4.342;2022-10-30T00:37:35;23.05;;;5.60;;
17347;SDS011;8791;50.876;4.342;2022-10-30T00:40:02;13.52;;;4.85;;
17347;SDS011;8791;50.876;4.342;2022-10-30T00:42:31;16.35;;;5.15;;
17347;SDS011;8791;50.876;4.342;2022-10-30T00:44:59;27.88;;;5.65;;
17347;SDS011;8791;50.876;4.342;2022-10-30T00:47:27;14.35;;;4.72;;
17347;SDS011;8791;50.876;4.342;2022-10-30T00:49:58;17.80;;;5.55;;
17347;SDS011;8791;50.876;4.342;2022-10-30T00:52:28;13.90;;;4.90;;
17347;SDS011;8791;50.876;4.342;2022-10-30T00:54:59;10.15;;;4.75;;
17347;SDS011;8791;50.876;4.342;2022-10-30T00:57:31;15.00;;;5.65;;
17347;SDS011;8791;50.876;4.342;2022-10-30T01:00:00;19.65;;;4.82;;
17347;SDS011;8791;50.876;4.342;2022-10-30T01:02:27;17.77;;;5.40;;
17347;SDS011;8791;50.876;4.342;2022-10-30T01:04:54;15.30;;;5.53;;
17347;SDS011;8791;50.876;4.342;2022-10-30T01:07:21;18.08;;;5.85;;
17347;SDS011;8791;50.876;4.342;2022-10-30T01:09:48;12.82;;;5.15;;
17347;SDS011;8791;50.876;4.342;2022-10-30T01:12:15;17.98;;;5.20;;
17347;SDS011;8791;50.876;4.342;2022-10-30T01:14:42;22.50;;;5.18;;
17347;SDS011;8791;50.876;4.342;2022-10-30T01:20:21;18.88;;;5.82;;
17347;SDS011;8791;50.876;4.342;2022-10-30T01:22:58;14.85;;;4.75;;
17347;SDS011;8791;50.876;4.342;2022-10-30T01:25:43;25.15;;;4.82;;
17347;SDS011;8791;50.876;4.342;2022-10-30T01:28:19;13.15;;;5.20;;
17347;SDS011;8791;50.876;4.342;2022-10-30T01:31:05;16.50;;;4.82;;
17347;SDS011;8791;50.876;4.342;2022-10-30T01:33:45;10.93;;;4.65;;
17347;SDS011;8791;50.876;4.342;2022-10-30T01:36:23;15.80;;;4.72;;
17347;SDS011;8791;50.876;4.342;2022-10-30T01:38:54;17.38;;;4.70;;
17347;SDS011;8791;50.876;4.342;2022-10-30T01:41:24;18.75;;;5.43;;
17347;SDS011;8791;50.876;4.342;2022-10-30T01:43:52;14.85;;;4.68;;
17347;SDS011;8791;50.876;4.342;2022-10-30T01:46:29;12.45;;;5.40;;
17347;SDS011;8791;50.876;4.342;2022-10-30T01:49:10;17.73;;;5.15;;
17347;SDS011;8791;50.876;4.342;2022-10-30T01:51:53;19.02;;;5.72;;
17347;SDS011;8791;50.876;4.342;2022-10-30T01:54:31;16.10;;;4.95;;
17347;SDS011;8791;50.876;4.342;2022-10-30T01:57:02;20.73;;;6.00;;
17347;SDS011;8791;50.876;4.342;2022-10-30T01:59:34;14.95;;;5.07;;
17347;SDS011;8791;50.876;4.342;2022-10-30T02:02:03;8.45;;;4.95;;
17347;SDS011;8791;50.876;4.342;2022-10-30T02:04:30;20.50;;;6.22;;
17347;SDS011;8791;50.876;4.342;2022-10-30T02:06:58;22.52;;;5.55;;
17347;SDS011;8791;50.876;4.342;2022-10-30T02:09:25;14.10;;;5.22;;
17347;SDS011;8791;50.876;4.342;2022-10-30T02:11:52;17.50;;;5.40;;
17347;SDS011;8791;50.876;4.342;2022-10-30T02:14:20;16.73;;;5.07;;
17347;SDS011;8791;50.876;4.342;2022-10-30T02:16:51;17.15;;;5.45;;
17347;SDS011;8791;50.876;4.342;2022-10-30T02:19:19;24.25;;;5.70;;
17347;SDS011;8791;50.876;4.342;2022-10-30T02:21:47;17.27;;;5.63;;
17347;SDS011;8791;50.876;4.342;2022-10-30T02:24:14;20.67;;;5.60;;
17347;SDS011;8791;50.876;4.342;2022-10-30T02:26:41;15.90;;;5.55;;
17347;SDS011;8791;50.876;4.342;2022-10-30T02:29:08;18.10;;;5.95;;
17347;SDS011;8791;50.876;4.342;2022-10-30T02:31:35;26.02;;;5.90;;
17347;SDS011;8791;50.876;4.342;2022-10-30T02:34:02;18.17;;;5.32;;
17347;SDS011;8791;50.876;4.342;2022-10-30T02:36:29;14.77;;;5.82;;
17347;SDS011;8791;50.876;4.342;2022-10-30T02:38:57;22.15;;;5.85;;
17347;SDS011;8791;50.876;4.342;2022-10-30T02:41:24;13.10;;;5.05;;
17347;SDS011;8791;50.876;4.342;2022-10-30T02:43:51;14.35;;;5.47;;
17347;SDS011;8791;50.876;4.342;2022-10-30T02:46:18;17.55;;;5.63;;
17347;SDS011;8791;50.876;4.342;2022-10-30T02:48:45;21.05;;;6.20;;
17347;SDS011;8791;50.876;4.342;2022-10-30T02:51:12;19.27;;;6.43;;
17347;SDS011;8791;50.876;4.342;2022-10-30T02:53:39;16.30;;;5.40;;
17347;SDS011;8791;50.876;4.342;2022-10-30T02:56:08;24.00;;;5.80;;
17347;SDS011;8791;50.876;4.342;2022-10-30T02:58:36;16.63;;;5.65;;
17347;SDS011;8791;50.876;4.342;2022-10-30T03:01:04;22.08;;;5.68;;
17347;SDS011;8791;50.876;4.342;2022-10-30T03:03:31;23.90;;;6.57;;
17347;SDS011;8791;50.876;4.342;2022-10-30T03:05:59;16.85;;;6.40;;
17347;SDS011;8791;50.876;4.342;2022-10-30T03:08:26;21.35;;;5.88;;
17347;SDS011;8791;50.876;4.342;2022-10-30T03:10:57;22.98;;;5.85;;
17347;SDS011;8791;50.876;4.342;2022-10-30T03:13:27;21.85;;;5.60;;
17347;SDS011;8791;50.876;4.342;2022-10-30T03:15:58;26.08;;;6.13;;
17347;SDS011;8791;50.876;4.342;2022-10-30T03:18:25;17.40;;;5.45;;
17347;SDS011;8791;50.876;4.342;2022-10-30T03:20:54;24.63;;;6.35;;
17347;SDS011;8791;50.876;4.342;2022-10-30T03:23:22;13.90;;;4.95;;
17347;SDS011;8791;50.876;4.342;2022-10-30T03:25:51;15.25;;;5.15;;
17347;SDS011;8791;50.876;4.342;2022-10-30T03:28:18;23.73;;;5.45;;
17347;SDS011;8791;50.876;4.342;2022-10-30T03:30:47;18.17;;;5.88;;
17347;SDS011;8791;50.876;4.342;2022-10-30T03:33:14;14.00;;;5.90;;
17347;SDS011;8791;50.876;4.342;2022-10-30T03:35:41;14.40;;;6.53;;
17347;SDS011;8791;50.876;4.342;2022-10-30T03:38:08;9.88;;;5.72;;
17347;SDS011;8791;50.876;4.342;2022-10-30T03:40:35;19.15;;;5.88;;
17347;SDS011;8791;50.876;4.342;2022-10-30T03:43:02;16.67;;;5.30;;
17347;SDS011;8791;50.876;4.342;2022-10-30T03:45:30;12.23;;;5.78;;
17347;SDS011;8791;50.876;4.342;2022-10-30T03:47:59;18.08;;;5.72;;
17347;SDS011;8791;50.876;4.342;2022-10-30T03:50:26;12.98;;;5.60;;
17347;SDS011;8791;50.876;4.342;2022-10-30T03:52:53;17.25;;;6.32;;
17347;SDS011;8791;50.876;4.342;2022-10-30T03:55:20;11.10;;;5.78;;
17347;SDS011;8791;50.876;4.342;2022-10-30T03:57:47;22.63;;;7.00;;
17347;SDS011;8791;50.876;4.342;2022-10-30T04:00:14;17.23;;;6.85;;
17347;SDS011;8791;50.876;4.342;2022-10-30T04:02:43;12.75;;;5.70;;
17347;SDS011;8791;50.876;4.342;2022-10-30T04:05:12;17.85;;;6.07;;
17347;SDS011;8791;50.876;4.342;2022-10-30T04:07:39;19.38;;;6.05;;
17347;SDS011;8791;50.876;4.342;2022-10-30T04:10:06;11.15;;;5.78;;
17347;SDS011;8791;50.876;4.342;2022-10-30T04:12:34;16.38;;;6.20;;
17347;SDS011;8791;50.876;4.342;2022-10-30T04:15:00;12.60;;;5.70;;
17347;SDS011;8791;50.876;4.342;2022-10-30T04:17:27;28.50;;;6.85;;
17347;SDS011;8791;50.876;4.342;2022-10-30T04:19:54;12.85;;;6.47;;
17347;SDS011;8791;50.876;4.342;2022-10-30T04:22:22;18.00;;;6.93;;
17347;SDS011;8791;50.876;4.342;2022-10-30T04:24:49;15.85;;;6.25;;
17347;SDS011;8791;50.876;4.342;2022-10-30T04:27:17;19.85;;;7.32;;
17347;SDS011;8791;50.876;4.342;2022-10-30T04:29:45;19.92;;;6.43;;
17347;SDS011;8791;50.876;4.342;2022-10-30T04:32:11;14.70;;;6.22;;
17347;SDS011;8791;50.876;4.342;2022-10-30T04:34:38;17.60;;;6.53;;
17347;SDS011;8791;50.876;4.342;2022-10-30T04:37:05;15.95;;;6.93;;
17347;SDS011;8791;50.876;4.342;2022-10-30T04:39:33;30.70;;;7.00;;
17347;SDS011;8791;50.876;4.342;2022-10-30T04:42:00;16.25;;;6.03;;
17347;SDS011;8791;50.876;4.342;2022-10-30T04:44:27;16.65;;;6.88;;
17347;SDS011;8791;50.876;4.342;2022-10-30T04:46:54;18.48;;;6.47;;
17347;SDS011;8791;50.876;4.342;2022-10-30T04:49:21;23.10;;;7.35;;
17347;SDS011;8791;50.876;4.342;2022-10-30T04:51:47;20.08;;;6.78;;
17347;SDS011;8791;50.876;4.342;2022-10-30T04:54:14;22.33;;;7.65;;
17347;SDS011;8791;50.876;4.342;2022-10-30T04:56:42;15.13;;;7.30;;
17347;SDS011;8791;50.876;4.342;2022-10-30T04:59:09;19.30;;;7.90;;
17347;SDS011;8791;50.876;4.342;2022-10-30T05:01:36;16.17;;;6.80;;
17347;SDS011;8791;50.876;4.342;2022-10-30T05:04:03;17.45;;;6.68;;
17347;SDS011;8791;50.876;4.342;2022-10-30T05:06:30;17.15;;;6.50;;
17347;SDS011;8791;50.876;4.342;2022-10-30T05:08:57;22.45;;;6.70;;
17347;SDS011;8791;50.876;4.342;2022-10-30T05:11:23;24.33;;;7.20;;
17347;SDS011;8791;50.876;4.342;2022-10-30T05:13:52;16.63;;;6.88;;
17347;SDS011;8791;50.876;4.342;2022-10-30T05:16:18;23.90;;;6.53;;
17347;SDS011;8791;50.876;4.342;2022-10-30T05:18:45;21.25;;;6.43;;
17347;SDS011;8791;50.876;4.342;2022-10-30T05:21:12;23.38;;;7.13;;
17347;SDS011;8791;50.876;4.342;2022-10-30T05:23:39;13.23;;;6.93;;
17347;SDS011;8791;50.876;4.342;2022-10-30T05:26:05;17.52;;;7.53;;
17347;SDS011;8791;50.876;4.342;2022-10-30T05:28:32;15.95;;;7.72;;
17347;SDS011;8791;50.876;4.342;2022-10-30T05:31:00;14.98;;;7.07;;
17347;SDS011;8791;50.876;4.342;2022-10-30T05:33:27;18.05;;;7.15;;
17347;SDS011;8791;50.876;4.342;2022-10-30T05:35:54;17.92;;;7.43;;
17347;SDS011;8791;50.876;4.342;2022-10-30T05:38:21;25.50;;;6.93;;
17347;SDS011;8791;50.876;4.342;2022-10-30T05:40:48;14.75;;;6.30;;
17347;SDS011;8791;50.876;4.342;2022-10-30T05:43:14;19.88;;;6.97;;
17347;SDS011;8791;50.876;4.342;2022-10-30T05:45:41;13.48;;;5.90;;
17347;SDS011;8791;50.876;4.342;2022-10-30T05:48:09;15.55;;;7.25;;
17347;SDS011;8791;50.876;4.342;2022-10-30T05:50:36;20.20;;;6.35;;
17347;SDS011;8791;50.876;4.342;2022-10-30T05:53:03;18.63;;;6.85;;
17347;SDS011;8791;50.876;4.342;2022-10-30T05:55:30;18.25;;;6.82;;
17347;SDS011;8791;50.876;4.342;2022-10-30T05:57:57;23.92;;;7.20;;
17347;SDS011;8791;50.876;4.342;2022-10-30T06:00:26;16.55;;;6.80;;
17347;SDS011;8791;50.876;4.342;2022-10-30T06:02:57;15.32;;;6.07;;
17347;SDS011;8791;50.876;4.342;2022-10-30T06:05:26;17.05;;;6.57;;
17347;SDS011;8791;50.876;4.342;2022-10-30T06:07:56;18.90;;;7.18;;
17347;SDS011;8791;50.876;4.342;2022-10-30T06:10:23;20.45;;;7.72;;
17347;SDS011;8791;50.876;4.342;2022-10-30T06:12:53;15.98;;;6.90;;
17347;SDS011;8791;50.876;4.342;2022-10-30T06:15:20;14.13;;;7.10;;
17347;SDS011;8791;50.876;4.342;2022-10-30T06:17:48;19.83;;;7.40;;
17347;SDS011;8791;50.876;4.342;2022-10-30T06:20:16;14.23;;;7.00;;
17347;SDS011;8791;50.876;4.342;2022-10-30T06:22:53;15.95;;;7.28;;
17347;SDS011;8791;50.876;4.342;2022-10-30T06:25:20;18.92;;;7.50;;
17347;SDS011;8791;50.876;4.342;2022-10-30T06:27:47;23.95;;;6.82;;
17347;SDS011;8791;50.876;4.342;2022-10-30T06:30:14;18.60;;;7.13;;
17347;SDS011;8791;50.876;4.342;2022-10-30T06:32:41;15.23;;;6.97;;
17347;SDS011;8791;50.876;4.342;2022-10-30T06:35:08;10.10;;;6.25;;
17347;SDS011;8791;50.876;4.342;2022-10-30T06:37:35;15.05;;;6.45;;
17347;SDS011;8791;50.876;4.342;2022-10-30T06:40:05;18.67;;;7.67;;
17347;SDS011;8791;50.876;4.342;2022-10-30T06:42:33;19.42;;;7.30;;
17347;SDS011;8791;50.876;4.342;2022-10-30T06:45:08;22.95;;;8.10;;
17347;SDS011;8791;50.876;4.342;2022-10-30T06:47:36;19.33;;;7.07;;
17347;SDS011;8791;50.876;4.342;2022-10-30T06:50:03;23.83;;;7.25;;
17347;SDS011;8791;50.876;4.342;2022-10-30T06:52:31;18.05;;;7.00;;
17347;SDS011;8791;50.876;4.342;2022-10-30T06:55:00;17.73;;;7.40;;
17347;SDS011;8791;50.876;4.342;2022-10-30T06:57:29;22.45;;;7.47;;
17347;SDS011;8791;50.876;4.342;2022-10-30T06:59:55;23.83;;;7.13;;
17347;SDS011;8791;50.876;4.342;2022-10-30T07:02:22;18.13;;;7.25;;
17347;SDS011;8791;50.876;4.342;2022-10-30T07:04:49;28.50;;;8.48;;
17347;SDS011;8791;50.876;4.342;2022-10-30T07:07:16;17.05;;;7.90;;
17347;SDS011;8791;50.876;4.342;2022-10-30T07:09:43;24.73;;;7.97;;
17347;SDS011;8791;50.876;4.342;2022-10-30T07:12:11;19.33;;;7.43;;
17347;SDS011;8791;50.876;4.342;2022-10-30T07:14:39;23.85;;;8.13;;
17347;SDS011;8791;50.876;4.342;2022-10-30T07:17:06;19.70;;;8.77;;
17347;SDS011;8791;50.876;4.342;2022-10-30T07:19:34;23.67;;;8.43;;
17347;SDS011;8791;50.876;4.342;2022-10-30T07:22:01;20.33;;;8.43;;
17347;SDS011;8791;50.876;4.342;2022-10-30T07:24:28;21.85;;;8.55;;
17347;SDS011;8791;50.876;4.342;2022-10-30T07:26:55;20.05;;;8.00;;
17347;SDS011;8791;50.876;4.342;2022-10-30T07:29:22;27.92;;;8.07;;
17347;SDS011;8791;50.876;4.342;2022-10-30T07:31:50;24.70;;;8.48;;
17347;SDS011;8791;50.876;4.342;2022-10-30T07:34:17;20.92;;;8.15;;
17347;SDS011;8791;50.876;4.342;2022-10-30T07:36:43;23.20;;;9.20;;
17347;SDS011;8791;50.876;4.342;2022-10-30T07:39:10;21.42;;;8.13;;
17347;SDS011;8791;50.876;4.342;2022-10-30T07:41:37;24.25;;;8.55;;
17347;SDS011;8791;50.876;4.342;2022-10-30T07:44:04;20.95;;;7.68;;
17347;SDS011;8791;50.876;4.342;2022-10-30T07:46:31;20.83;;;8.00;;
17347;SDS011;8791;50.876;4.342;2022-10-30T07:48:59;29.90;;;9.13;;
17347;SDS011;8791;50.876;4.342;2022-10-30T07:51:26;20.60;;;7.65;;
17347;SDS011;8791;50.876;4.342;2022-10-30T07:53:53;17.08;;;7.68;;
17347;SDS011;8791;50.876;4.342;2022-10-30T07:56:20;19.83;;;7.80;;
17347;SDS011;8791;50.876;4.342;2022-10-30T07:58:48;29.80;;;8.43;;
17347;SDS011;8791;50.876;4.342;2022-10-30T08:01:15;24.67;;;8.30;;
17347;SDS011;8791;50.876;4.342;2022-10-30T08:03:42;18.33;;;8.23;;
17347;SDS011;8791;50.876;4.342;2022-10-30T08:06:10;23.17;;;8.55;;
17347;SDS011;8791;50.876;4.342;2022-10-30T08:08:37;21.45;;;8.07;;
17347;SDS011;8791;50.876;4.342;2022-10-30T08:11:04;22.45;;;8.90;;
17347;SDS011;8791;50.876;4.342;2022-10-30T08:13:31;30.10;;;8.93;;
17347;SDS011;8791;50.876;4.342;2022-10-30T08:15:58;22.77;;;8.27;;
17347;SDS011;8791;50.876;4.342;2022-10-30T08:18:25;25.60;;;8.80;;
17347;SDS011;8791;50.876;4.342;2022-10-30T08:20:52;30.40;;;8.90;;
17347;SDS011;8791;50.876;4.342;2022-10-30T08:23:20;27.67;;;9.02;;
17347;SDS011;8791;50.876;4.342;2022-10-30T08:25:50;31.23;;;9.10;;
17347;SDS011;8791;50.876;4.342;2022-10-30T08:28:17;16.42;;;8.00;;
17347;SDS011;8791;50.876;4.342;2022-10-30T08:30:44;20.27;;;8.32;;
17347;SDS011;8791;50.876;4.342;2022-10-30T08:33:11;28.40;;;8.35;;
17347;SDS011;8791;50.876;4.342;2022-10-30T08:35:45;18.92;;;8.82;;
17347;SDS011;8791;50.876;4.342;2022-10-30T08:38:12;20.83;;;7.78;;
17347;SDS011;8791;50.876;4.342;2022-10-30T08:40:41;23.50;;;8.52;;
17347;SDS011;8791;50.876;4.342;2022-10-30T08:43:07;29.90;;;8.05;;
17347;SDS011;8791;50.876;4.342;2022-10-30T08:45:35;22.52;;;8.30;;
17347;SDS011;8791;50.876;4.342;2022-10-30T08:48:02;27.65;;;8.45;;
17347;SDS011;8791;50.876;4.342;2022-10-30T08:50:30;26.10;;;8.65;;
17347;SDS011;8791;50.876;4.342;2022-10-30T08:52:59;23.60;;;8.60;;
17347;SDS011;8791;50.876;4.342;2022-10-30T08:55:27;27.10;;;8.90;;
17347;SDS011;8791;50.876;4.342;2022-10-30T08:57:57;23.80;;;9.10;;
17347;SDS011;8791;50.876;4.342;2022-10-30T09:00:25;26.25;;;10.20;;
17347;SDS011;8791;50.876;4.342;2022-10-30T09:02:53;31.25;;;9.65;;
17347;SDS011;8791;50.876;4.342;2022-10-30T09:05:20;32.67;;;10.50;;
17347;SDS011;8791;50.876;4.342;2022-10-30T09:07:47;25.75;;;10.10;;
17347;SDS011;8791;50.876;4.342;2022-10-30T09:10:14;29.60;;;10.32;;
17347;SDS011;8791;50.876;4.342;2022-10-30T09:12:41;26.27;;;9.45;;
17347;SDS011;8791;50.876;4.342;2022-10-30T09:15:09;26.10;;;10.18;;
17347;SDS011;8791;50.876;4.342;2022-10-30T09:17:36;23.05;;;9.32;;
17347;SDS011;8791;50.876;4.342;2022-10-30T09:20:03;25.52;;;9.43;;
17347;SDS011;8791;50.876;4.342;2022-10-30T09:22:30;27.27;;;8.75;;
17347;SDS011;8791;50.876;4.342;2022-10-30T09:24:57;25.05;;;9.50;;
17347;SDS011;8791;50.876;4.342;2022-10-30T09:27:24;30.77;;;9.55;;
17347;SDS011;8791;50.876;4.342;2022-10-30T09:29:51;30.42;;;8.60;;
17347;SDS011;8791;50.876;4.342;2022-10-30T09:32:21;26.02;;;8.82;;
17347;SDS011;8791;50.876;4.342;2022-10-30T09:34:48;27.25;;;8.55;;
17347;SDS011;8791;50.876;4.342;2022-10-30T09:37:14;24.45;;;8.40;;
17347;SDS011;8791;50.876;4.342;2022-10-30T09:39:43;21.70;;;8.30;;
17347;SDS011;8791;50.876;4.342;2022-10-30T09:42:19;26.60;;;9.13;;
17347;SDS011;8791;50.876;4.342;2022-10-30T09:45:08;18.90;;;8.70;;
17347;SDS011;8791;50.876;4.342;2022-10-30T09:47:48;19.33;;;8.77;;
17347;SDS011;8791;50.876;4.342;2022-10-30T09:50:26;23.17;;;8.75;;
17347;SDS011;8791;50.876;4.342;2022-10-30T09:53:02;27.00;;;8.70;;
17347;SDS011;8791;50.876;4.342;2022-10-30T09:55:33;23.98;;;7.95;;
17347;SDS011;8791;50.876;4.342;2022-10-30T10:01:00;19.00;;;6.30;;
17347;SDS011;8791;50.876;4.342;2022-10-30T10:03:50;18.77;;;7.00;;
17347;SDS011;8791;50.876;4.342;2022-10-30T10:06:23;18.15;;;7.15;;
17347;SDS011;8791;50.876;4.342;2022-10-30T10:08:52;28.25;;;7.57;;
17347;SDS011;8791;50.876;4.342;2022-10-30T10:11:25;22.52;;;7.35;;
17347;SDS011;8791;50.876;4.342;2022-10-30T10:13:56;17.52;;;6.88;;
17347;SDS011;8791;50.876;4.342;2022-10-30T10:16:27;26.92;;;7.30;;
17347;SDS011;8791;50.876;4.342;2022-10-30T10:18:59;21.13;;;7.28;;
17347;SDS011;8791;50.876;4.342;2022-10-30T10:21:34;20.70;;;6.88;;
17347;SDS011;8791;50.876;4.342;2022-10-30T10:24:11;12.88;;;6.00;;
17347;SDS011;8791;50.876;4.342;2022-10-30T10:26:45;18.40;;;6.80;;
17347;SDS011;8791;50.876;4.342;2022-10-30T10:29:28;19.00;;;6.88;;
17347;SDS011;8791;50.876;4.342;2022-10-30T10:32:12;23.02;;;6.45;;
17347;SDS011;8791;50.876;4.342;2022-10-30T10:35:03;18.55;;;6.43;;
17347;SDS011;8791;50.876;4.342;2022-10-30T10:38:00;20.25;;;6.43;;
17347;SDS011;8791;50.876;4.342;2022-10-30T10:40:35;19.85;;;6.32;;
17347;SDS011;8791;50.876;4.342;2022-10-30T10:43:11;16.95;;;6.15;;
17347;SDS011;8791;50.876;4.342;2022-10-30T10:45:47;16.13;;;6.15;;
17347;SDS011;8791;50.876;4.342;2022-10-30T10:48:28;22.45;;;6.30;;
17347;SDS011;8791;50.876;4.342;2022-10-30T10:51:11;21.55;;;7.38;;
17347;SDS011;8791;50.876;4.342;2022-10-30T10:53:42;27.77;;;7.10;;
17347;SDS011;8791;50.876;4.342;2022-10-30T10:56:13;16.98;;;6.15;;
17347;SDS011;8791;50.876;4.342;2022-10-30T10:58:43;21.40;;;6.85;;
17347;SDS011;8791;50.876;4.342;2022-10-30T11:01:16;22.52;;;7.72;;
17347;SDS011;8791;50.876;4.342;2022-10-30T11:03:48;22.05;;;7.22;;
17347;SDS011;8791;50.876;4.342;2022-10-30T11:06:26;17.77;;;6.55;;
17347;SDS011;8791;50.876;4.342;2022-10-30T11:08:57;22.10;;;6.70;;
17347;SDS011;8791;50.876;4.342;2022-10-30T11:11:27;14.98;;;6.53;;
17347;SDS011;8791;50.876;4.342;2022-10-30T11:13:54;17.55;;;7.68;;
17347;SDS011;8791;50.876;4.342;2022-10-30T11:16:24;25.05;;;7.03;;
17347;SDS011;8791;50.876;4.342;2022-10-30T11:18:56;21.92;;;6.25;;
17347;SDS011;8791;50.876;4.342;2022-10-30T11:21:26;11.30;;;6.10;;
17347;SDS011;8791;50.876;4.342;2022-10-30T11:23:56;19.73;;;6.57;;
17347;SDS011;8791;50.876;4.342;2022-10-30T11:26:24;20.77;;;5.85;;
17347;SDS011;8791;50.876;4.342;2022-10-30T11:28:57;20.73;;;6.35;;
17347;SDS011;8791;50.876;4.342;2022-10-30T11:31:29;25.27;;;5.97;;
17347;SDS011;8791;50.876;4.342;2022-10-30T11:34:11;11.75;;;5.50;;
17347;SDS011;8791;50.876;4.342;2022-10-30T11:36:41;14.95;;;5.22;;
17347;SDS011;8791;50.876;4.342;2022-10-30T11:39:09;19.30;;;5.57;;
17347;SDS011;8791;50.876;4.342;2022-10-30T11:41:36;15.98;;;5.97;;
17347;SDS011;8791;50.876;4.342;2022-10-30T11:44:04;12.82;;;5.32;;
17347;SDS011;8791;50.876;4.342;2022-10-30T11:46:31;14.38;;;5.82;;
17347;SDS011;8791;50.876;4.342;2022-10-30T11:49:00;15.98;;;4.93;;
17347;SDS011;8791;50.876;4.342;2022-10-30T11:51:31;13.88;;;5.13;;
17347;SDS011;8791;50.876;4.342;2022-10-30T11:54:03;14.43;;;5.32;;
17347;SDS011;8791;50.876;4.342;2022-10-30T11:56:35;13.52;;;5.25;;
17347;SDS011;8791;50.876;4.342;2022-10-30T11:59:23;16.35;;;5.15;;
17347;SDS011;8791;50.876;4.342;2022-10-30T12:01:58;16.65;;;5.47;;
17347;SDS011;8791;50.876;4.342;2022-10-30T12:04:27;10.10;;;4.85;;
17347;SDS011;8791;50.876;4.342;2022-10-30T12:07:06;12.98;;;5.43;;
17347;SDS011;8791;50.876;4.342;2022-10-30T12:09:41;20.98;;;4.88;;
17347;SDS011;8791;50.876;4.342;2022-10-30T12:12:10;11.50;;;4.05;;
17347;SDS011;8791;50.876;4.342;2022-10-30T12:14:43;18.48;;;4.70;;
17347;SDS011;8791;50.876;4.342;2022-10-30T12:17:12;18.48;;;5.35;;
17347;SDS011;8791;50.876;4.342;2022-10-30T12:19:43;15.40;;;4.60;;
17347;SDS011;8791;50.876;4.342;2022-10-30T12:22:20;14.43;;;4.78;;
17347;SDS011;8791;50.876;4.342;2022-10-30T12:24:51;13.27;;;4.82;;
17347;SDS011;8791;50.876;4.342;2022-10-30T12:27:18;7.75;;;4.60;;
17347;SDS011;8791;50.876;4.342;2022-10-30T12:29:47;17.05;;;4.72;;
17347;SDS011;8791;50.876;4.342;2022-10-30T12:32:26;21.13;;;5.13;;
17347;SDS011;8791;50.876;4.342;2022-10-30T12:34:59;15.43;;;4.95;;
17347;SDS011;8791;50.876;4.342;2022-10-30T12:37:31;14.90;;;5.10;;
17347;SDS011;8791;50.876;4.342;2022-10-30T12:40:04;14.40;;;5.00;;
17347;SDS011;8791;50.876;4.342;2022-10-30T12:42:38;21.67;;;5.78;;
17347;SDS011;8791;50.876;4.342;2022-10-30T12:45:11;14.63;;;4.82;;
17347;SDS011;8791;50.876;4.342;2022-10-30T12:47:42;18.83;;;4.85;;
17347;SDS011;8791;50.876;4.342;2022-10-30T12:50:16;13.93;;;5.03;;
17347;SDS011;8791;50.876;4.342;2022-10-30T12:52:48;13.60;;;4.97;;
17347;SDS011;8791;50.876;4.342;2022-10-30T12:55:24;14.35;;;4.30;;
17347;SDS011;8791;50.876;4.342;2022-10-30T12:57:55;13.88;;;5.53;;
17347;SDS011;8791;50.876;4.342;2022-10-30T13:00:29;9.48;;;4.22;;
17347;SDS011;8791;50.876;4.342;2022-10-30T13:03:04;13.93;;;4.50;;
17347;SDS011;8791;50.876;4.342;2022-10-30T13:05:46;15.95;;;5.05;;
17347;SDS011;8791;50.876;4.342;2022-10-30T13:08:18;19.35;;;4.78;;
17347;SDS011;8791;50.876;4.342;2022-10-30T13:10:53;17.48;;;4.72;;
17347;SDS011;8791;50.876;4.342;2022-10-30T13:13:26;15.40;;;4.88;;
17347;SDS011;8791;50.876;4.342;2022-10-30T13:15:59;11.00;;;4.88;;
17347;SDS011;8791;50.876;4.342;2022-10-30T13:18:28;13.65;;;5.70;;
17347;SDS011;8791;50.876;4.342;2022-10-30T13:20:59;21.27;;;5.80;;
17347;SDS011;8791;50.876;4.342;2022-10-30T13:23:34;20.83;;;5.50;;
17347;SDS011;8791;50.876;4.342;2022-10-30T13:26:12;12.13;;;4.88;;
17347;SDS011;8791;50.876;4.342;2022-10-30T13:28:49;12.77;;;5.18;;
17347;SDS011;8791;50.876;4.342;2022-10-30T13:31:21;12.77;;;4.57;;
17347;SDS011;8791;50.876;4.342;2022-10-30T13:33:57;13.57;;;5.20;;
17347;SDS011;8791;50.876;4.342;2022-10-30T13:36:32;14.40;;;5.20;;
17347;SDS011;8791;50.876;4.342;2022-10-30T13:39:11;15.30;;;5.25;;
17347;SDS011;8791;50.876;4.342;2022-10-30T13:41:50;14.48;;;4.88;;
17347;SDS011;8791;50.876;4.342;2022-10-30T13:44:29;21.40;;;6.30;;
17347;SDS011;8791;50.876;4.342;2022-10-30T13:47:07;15.40;;;5.28;;
17347;SDS011;8791;50.876;4.342;2022-10-30T13:49:48;15.27;;;4.88;;
17347;SDS011;8791;50.876;4.342;2022-10-30T13:52:35;12.20;;;4.90;;
17347;SDS011;8791;50.876;4.342;2022-10-30T13:55:06;12.50;;;5.05;;
17347;SDS011;8791;50.876;4.342;2022-10-30T13:57:44;12.27;;;5.82;;
17347;SDS011;8791;50.876;4.342;2022-10-30T14:00:17;12.57;;;5.15;;
17347;SDS011;8791;50.876;4.342;2022-10-30T14:02:53;18.50;;;5.47;;
17347;SDS011;8791;50.876;4.342;2022-10-30T14:05:30;13.68;;;4.78;;
17347;SDS011;8791;50.876;4.342;2022-10-30T14:08:05;12.05;;;5.03;;
17347;SDS011;8791;50.876;4.342;2022-10-30T14:10:41;14.13;;;4.95;;
17347;SDS011;8791;50.876;4.342;2022-10-30T14:13:14;13.77;;;4.88;;
17347;SDS011;8791;50.876;4.342;2022-10-30T14:15:51;16.17;;;5.60;;
17347;SDS011;8791;50.876;4.342;2022-10-30T14:18:26;18.02;;;5.55;;
17347;SDS011;8791;50.876;4.342;2022-10-30T14:20:55;14.25;;;5.32;;
17347;SDS011;8791;50.876;4.342;2022-10-30T14:23:23;13.43;;;6.70;;
17347;SDS011;8791;50.876;4.342;2022-10-30T14:28:48;13.45;;;5.53;;
17347;SDS011;8791;50.876;4.342;2022-10-30T14:31:17;19.35;;;5.40;;
17347;SDS011;8791;50.876;4.342;2022-10-30T14:33:46;18.35;;;7.60;;
17347;SDS011;8791;50.876;4.342;2022-10-30T14:36:15;17.52;;;6.78;;
17347;SDS011;8791;50.876;4.342;2022-10-30T14:38:51;18.70;;;6.80;;
17347;SDS011;8791;50.876;4.342;2022-10-30T14:41:47;14.57;;;6.97;;
17347;SDS011;8791;50.876;4.342;2022-10-30T14:44:50;14.52;;;6.35;;
17347;SDS011;8791;50.876;4.342;2022-10-30T14:50:19;19.77;;;7.35;;
17347;SDS011;8791;50.876;4.342;2022-10-30T14:53:13;15.82;;;7.03;;
17347;SDS011;8791;50.876;4.342;2022-10-30T14:55:49;18.25;;;8.15;;
17347;SDS011;8791;50.876;4.342;2022-10-30T14:58:23;26.02;;;10.98;;
17347;SDS011;8791;50.876;4.342;2022-10-30T15:00:55;21.98;;;8.27;;
17347;SDS011;8791;50.876;4.342;2022-10-30T15:03:56;20.00;;;7.00;;
17347;SDS011;8791;50.876;4.342;2022-10-30T15:06:44;17.67;;;7.75;;
17347;SDS011;8791;50.876;4.342;2022-10-30T15:09:22;23.75;;;7.90;;
17347;SDS011;8791;50.876;4.342;2022-10-30T15:12:13;24.05;;;8.25;;
17347;SDS011;8791;50.876;4.342;2022-10-30T15:14:48;20.02;;;8.02;;
17347;SDS011;8791;50.876;4.342;2022-10-30T15:17:23;14.98;;;7.82;;
17347;SDS011;8791;50.876;4.342;2022-10-30T15:19:54;26.23;;;8.57;;